Search for airport 
image banner adimage banner adimage banner ad
image banner ad

N74 - Penns Cave

Located in Centre Hall, United States

ICAO - N74, IATA -

Data provided by Airmate  

General information

Coordinates: N40°53'24" W77°36'11"
Elevation is 1245 feet MSL.
Magnetic variation is -10° East
View others Airports in Pennsylvania

Operational data

Special qualification required
Current time UTC:
Current local time:
Weather at : KUNV - University Park ( 21 km )
METAR: KUNV 150615Z AUTO 00000KT 1/4SM FG BKN065 BKN080 BKN090 13/13 A2985 RMK AO2 T01340134
TAF: KUNV 150537Z 1506/1606 27005KT 5SM BR SCT001 TEMPO 1508/1512 1/2SM FG OVC001 FM151400 32010G20KT P6SM BKN040 FM160100 32007KT P6SM SCT035
View NOTAMs / SUP AIP / TFR affecting this airport [VIEW]
Communications frequencies: [VIEW]

Runways:

RWY identifierQFULength (ft)Width (ft)SurfaceLDA (ft)
07250940ASPH
25250940ASPH

Airport contact information

Address: Centre Hall United States

Satellite view of N74